Time;durP1;ratioP1;P1;durP2;ratioP2;P2;SDS_P1;SDS_P2;PMS_P1;PMS_P2;Temp;Humidity;BMP_temperature;BMP_pressure;BME280_temperature;BME280_humidity;BME280_pressure;Samples;Min_cycle;Max_cycle;Signal;HPM_P1;HPM_P2
2022/11/21 00:00:21;;;;;;;8.95;2.30;;;12.70;96.00;;;;;;5053262;28;20389;-72
2022/11/21 00:02:47;;;;;;;8.88;2.10;;;12.70;96.00;;;;;;5053437;28;20017;-73
2022/11/21 00:05:13;;;;;;;6.95;2.97;;;12.60;95.90;;;;;;5053511;28;20037;-74
2022/11/21 00:07:38;;;;;;;8.60;2.45;;;12.60;96.00;;;;;;5053415;28;20367;-75
2022/11/21 00:10:04;;;;;;;10.68;2.15;;;12.70;95.90;;;;;;5053551;28;20029;-73
2022/11/21 00:12:31;;;;;;;7.63;2.15;;;12.60;95.90;;;;;;5053399;28;20569;-72
2022/11/21 00:14:57;;;;;;;6.68;1.92;;;12.60;96.00;;;;;;5053307;28;20104;-72
2022/11/21 00:17:22;;;;;;;8.13;2.22;;;12.70;96.00;;;;;;5053329;28;20112;-72
2022/11/21 00:19:48;;;;;;;5.38;1.90;;;12.80;95.50;;;;;;5053133;28;20033;-71
2022/11/21 00:22:13;;;;;;;7.90;2.20;;;12.70;95.60;;;;;;5053513;28;20146;-73
2022/11/21 00:24:39;;;;;;;9.43;3.17;;;12.70;95.70;;;;;;5053210;28;20040;-74
2022/11/21 00:27:05;;;;;;;7.20;2.50;;;12.70;95.70;;;;;;5052884;28;20044;-72
2022/11/21 00:29:30;;;;;;;7.53;2.30;;;12.60;95.90;;;;;;5052835;28;20036;-71
2022/11/21 00:31:56;;;;;;;9.60;3.42;;;12.60;95.80;;;;;;5053102;28;20470;-73
2022/11/21 00:34:22;;;;;;;9.80;2.83;;;12.60;96.10;;;;;;5053017;28;20462;-72
2022/11/21 00:36:47;;;;;;;9.20;2.72;;;12.50;96.10;;;;;;5053226;28;20032;-73
2022/11/21 00:39:13;;;;;;;6.15;2.35;;;12.50;96.30;;;;;;5053174;28;20051;-74
2022/11/21 00:41:38;;;;;;;4.65;1.98;;;12.50;96.40;;;;;;5053589;28;20025;-73
2022/11/21 00:44:04;;;;;;;11.32;2.75;;;12.50;96.50;;;;;;5052258;28;20033;-73
2022/11/21 00:46:29;;;;;;;7.40;2.10;;;12.50;96.60;;;;;;5052999;28;20104;-74
2022/11/21 00:48:55;;;;;;;7.30;2.50;;;12.50;96.80;;;;;;5052819;28;20103;-74
2022/11/21 00:51:20;;;;;;;6.38;2.50;;;12.50;96.80;;;;;;5052986;28;20028;-74
2022/11/21 00:53:46;;;;;;;7.00;2.05;;;12.50;96.70;;;;;;5052166;28;20029;-75
2022/11/21 00:56:12;;;;;;;10.15;2.58;;;12.50;96.70;;;;;;5052703;28;20025;-74
2022/11/21 00:58:37;;;;;;;6.90;1.85;;;12.50;96.70;;;;;;5052294;28;20029;-75
2022/11/21 01:01:05;;;;;;;5.38;1.73;;;12.50;96.90;;;;;;5052872;28;20065;-75
2022/11/21 01:03:33;;;;;;;6.32;2.63;;;12.50;96.90;;;;;;5052569;28;20463;-74
2022/11/21 01:06:03;;;;;;;11.40;2.45;;;12.50;96.90;;;;;;5052760;28;20052;-74
2022/11/21 01:08:29;;;;;;;7.25;2.33;;;12.50;97.10;;;;;;5052619;28;20025;-74
2022/11/21 01:10:54;;;;;;;8.85;2.67;;;12.50;97.00;;;;;;5052786;28;20558;-74
2022/11/21 01:13:20;;;;;;;6.82;3.38;;;12.50;97.00;;;;;;5052279;28;20486;-74
2022/11/21 01:15:45;;;;;;;8.23;3.15;;;12.50;97.10;;;;;;5051270;28;20482;-75
2022/11/21 01:18:11;;;;;;;10.15;3.08;;;12.50;97.50;;;;;;5051573;28;20059;-73
2022/11/21 01:20:40;;;;;;;7.68;3.08;;;12.50;97.50;;;;;;5052493;28;20120;-70
2022/11/21 01:23:05;;;;;;;9.20;2.67;;;12.50;97.60;;;;;;5052453;28;20021;-73
2022/11/21 01:25:35;;;;;;;6.47;2.67;;;12.50;97.50;;;;;;5052410;28;20497;-71
2022/11/21 01:28:00;;;;;;;8.45;2.53;;;12.50;97.40;;;;;;5052248;28;20078;-72
2022/11/21 01:30:26;;;;;;;5.78;2.65;;;12.50;97.70;;;;;;5051303;28;20025;-74
2022/11/21 01:32:52;;;;;;;6.90;2.45;;;12.50;97.70;;;;;;5052660;28;20021;-72
2022/11/21 01:35:17;;;;;;;7.72;2.58;;;12.40;97.60;;;;;;5050928;28;20013;-72
2022/11/21 01:37:47;;;;;;;6.72;2.42;;;12.40;97.60;;;;;;5052601;28;20125;-73
2022/11/21 01:40:13;;;;;;;8.85;3.00;;;12.40;97.80;;;;;;5050776;28;20036;-72
2022/11/21 01:43:12;;;;;;;9.20;2.75;;;12.40;97.70;;;;;;5052264;28;20108;-71
2022/11/21 01:45:55;;;;;;;7.88;2.72;;;12.50;97.70;;;;;;5019262;28;20080;-73
2022/11/21 01:48:47;;;;;;;4.85;2.22;;;12.40;97.80;;;;;;5052359;28;20485;-71
2022/11/21 01:51:25;;;;;;;7.00;2.65;;;12.40;97.70;;;;;;5043839;28;20045;-73
2022/11/21 01:54:17;;;;;;;9.02;2.92;;;12.50;97.60;;;;;;5052542;28;20355;-72
2022/11/21 01:56:49;;;;;;;6.70;2.72;;;12.40;97.90;;;;;;5051999;28;20439;-72
2022/11/21 01:59:23;;;;;;;7.63;3.45;;;12.40;97.60;;;;;;5052319;28;20033;-71
2022/11/21 02:01:52;;;;;;;10.90;3.83;;;12.40;97.60;;;;;;5052187;28;20086;-71
2022/11/21 02:04:18;;;;;;;10.30;4.63;;;12.40;97.60;;;;;;5053385;28;20090;-71
2022/11/21 02:06:44;;;;;;;13.32;5.43;;;12.40;97.50;;;;;;5055918;28;20107;-70
2022/11/21 02:09:10;;;;;;;9.20;3.38;;;12.50;97.60;;;;;;5051461;28;20585;-70
2022/11/21 02:11:47;;;;;;;9.95;2.95;;;12.50;97.60;;;;;;5048524;28;20045;-71
2022/11/21 02:14:14;;;;;;;7.35;2.85;;;12.40;97.70;;;;;;5034105;28;20036;-70
2022/11/21 02:16:39;;;;;;;8.57;2.67;;;12.40;97.80;;;;;;5033908;28;20056;-70
2022/11/21 02:19:14;;;;;;;8.40;2.83;;;12.40;97.80;;;;;;5035580;28;20475;-69
2022/11/21 02:21:56;;;;;;;6.10;2.00;;;12.40;97.70;;;;;;5035617;28;20025;-70
2022/11/21 02:24:41;;;;;;;3.55;1.70;;;12.40;97.80;;;;;;5035302;28;20076;-70
2022/11/21 02:27:08;;;;;;;6.13;2.13;;;12.40;97.60;;;;;;5035439;28;20028;-73
2022/11/21 02:29:34;;;;;;;6.53;2.20;;;12.40;97.60;;;;;;5035675;28;20103;-72
2022/11/21 02:32:04;;;;;;;9.20;2.30;;;12.40;97.70;;;;;;5035553;28;20079;-73
2022/11/21 02:34:29;;;;;;;7.80;2.72;;;12.40;97.80;;;;;;5035199;28;20115;-71
2022/11/21 02:36:56;;;;;;;5.45;2.60;;;12.40;97.60;;;;;;5035412;28;20478;-70
2022/11/21 02:39:32;;;;;;;7.88;2.63;;;12.40;97.60;;;;;;5034852;28;20029;-72
2022/11/21 02:42:19;;;;;;;8.80;2.25;;;12.40;97.80;;;;;;5035199;28;20025;-71
2022/11/21 02:44:52;;;;;;;8.35;2.50;;;12.40;97.70;;;;;;5035471;28;20485;-71
2022/11/21 02:47:20;;;;;;;6.32;2.55;;;12.40;97.40;;;;;;5035105;28;20030;-72
2022/11/21 02:50:18;;;;;;;5.40;2.53;;;12.30;97.40;;;;;;5034963;28;20056;-72
2022/11/21 02:52:43;;;;;;;4.55;1.77;;;12.40;97.60;;;;;;5030400;28;20711;-72
2022/11/21 02:55:10;;;;;;;8.02;2.90;;;12.40;97.10;;;;;;5034776;28;20053;-73
2022/11/21 02:57:37;;;;;;;7.82;2.55;;;12.40;97.20;;;;;;5035036;28;20025;-74
2022/11/21 03:00:03;;;;;;;7.20;2.70;;;12.30;97.30;;;;;;5034833;28;20029;-74
2022/11/21 03:02:28;;;;;;;5.47;2.20;;;12.30;97.30;;;;;;5034940;28;20033;-74
2022/11/21 03:04:54;;;;;;;6.43;2.10;;;12.30;97.50;;;;;;5034648;28;20030;-71
2022/11/21 03:07:20;;;;;;;7.97;2.60;;;12.30;97.50;;;;;;5033436;28;20035;-71
2022/11/21 03:09:45;;;;;;;6.40;1.90;;;12.30;97.50;;;;;;5034462;28;20017;-72
2022/11/21 03:12:11;;;;;;;8.13;2.05;;;12.30;97.50;;;;;;5034731;28;20044;-73
2022/11/21 03:14:36;;;;;;;10.18;2.15;;;12.30;97.50;;;;;;5034898;28;20033;-75
2022/11/21 03:17:03;;;;;;;5.35;1.63;;;12.20;97.50;;;;;;5033844;28;20041;-74
2022/11/21 03:19:29;;;;;;;5.88;1.92;;;12.20;97.70;;;;;;5034523;28;20035;-74
2022/11/21 03:21:55;;;;;;;5.05;1.92;;;12.20;97.80;;;;;;5034248;28;20100;-71
2022/11/21 03:24:20;;;;;;;7.63;1.98;;;12.20;97.70;;;;;;5034624;28;20427;-71
2022/11/21 03:26:46;;;;;;;4.75;1.73;;;12.20;97.60;;;;;;5034553;28;20049;-72
2022/11/21 03:29:12;;;;;;;6.82;2.15;;;12.20;97.60;;;;;;5034431;28;20101;-72
2022/11/21 03:31:37;;;;;;;8.05;2.10;;;12.10;97.70;;;;;;5033096;28;20034;-73
2022/11/21 03:34:03;;;;;;;6.35;2.33;;;12.10;97.50;;;;;;5034310;28;20080;-70
2022/11/21 03:36:28;;;;;;;5.20;1.73;;;12.20;97.40;;;;;;5034286;28;20021;-72
2022/11/21 03:38:58;;;;;;;5.25;1.83;;;12.10;97.20;;;;;;5034155;28;20030;-74
2022/11/21 03:41:28;;;;;;;5.95;1.75;;;12.10;97.20;;;;;;5034535;28;20044;-71
2022/11/21 03:43:58;;;;;;;5.75;1.95;;;12.10;97.10;;;;;;5034478;28;20082;-74
2022/11/21 03:46:24;;;;;;;6.65;2.20;;;12.00;97.10;;;;;;5034851;28;20038;-71
2022/11/21 03:48:50;;;;;;;7.10;2.00;;;12.00;97.00;;;;;;5034426;28;20489;-71
2022/11/21 03:51:16;;;;;;;4.93;1.98;;;12.00;97.00;;;;;;5034217;28;20026;-71
2022/11/21 03:53:41;;;;;;;6.25;1.80;;;12.00;96.90;;;;;;5035020;28;20018;-74
2022/11/21 03:56:07;;;;;;;5.53;1.92;;;12.00;96.80;;;;;;5034221;28;20021;-71
2022/11/21 03:58:32;;;;;;;5.10;1.88;;;12.10;96.70;;;;;;5033973;28;20549;-71
2022/11/21 04:00:58;;;;;;;8.05;1.80;;;12.00;96.60;;;;;;5033829;28;20478;-71
2022/11/21 04:03:23;;;;;;;6.70;1.60;;;12.00;96.60;;;;;;5033510;28;20033;-72
2022/11/21 04:05:49;;;;;;;5.70;1.48;;;12.00;96.50;;;;;;5033676;28;20411;-73
2022/11/21 04:08:14;;;;;;;4.88;1.98;;;12.00;96.50;;;;;;5033307;28;20489;-73
2022/11/21 04:10:46;;;;;;;6.97;1.63;;;12.00;96.60;;;;;;5033548;28;20467;-74
2022/11/21 04:13:12;;;;;;;6.53;2.13;;;12.00;96.70;;;;;;5033457;28;20028;-71
2022/11/21 04:15:39;;;;;;;6.93;2.03;;;12.00;96.70;;;;;;5033668;28;20022;-72
2022/11/21 04:18:05;;;;;;;7.97;2.30;;;12.00;96.60;;;;;;5033527;28;20053;-74
2022/11/21 04:20:30;;;;;;;6.95;1.48;;;11.90;96.60;;;;;;5032920;28;20076;-74
2022/11/21 04:22:56;;;;;;;6.63;1.80;;;11.90;96.50;;;;;;5033304;28;20063;-74
2022/11/21 04:25:21;;;;;;;4.38;1.73;;;11.90;96.60;;;;;;5033373;28;20033;-70
2022/11/21 04:27:47;;;;;;;5.60;1.70;;;12.00;96.60;;;;;;5033170;28;20028;-74
2022/11/21 04:30:13;;;;;;;5.68;1.80;;;12.00;96.50;;;;;;5033256;28;20029;-73
2022/11/21 04:32:38;;;;;;;6.22;1.48;;;12.00;96.60;;;;;;5033440;28;20132;-72
2022/11/21 04:35:04;;;;;;;6.30;1.77;;;12.00;96.70;;;;;;5032865;28;20033;-74
2022/11/21 04:37:30;;;;;;;4.68;1.58;;;12.00;96.60;;;;;;5033057;28;20018;-73
2022/11/21 04:39:55;;;;;;;7.95;1.85;;;12.00;96.60;;;;;;5032824;28;20488;-74
2022/11/21 04:42:21;;;;;;;4.47;1.65;;;11.90;96.70;;;;;;5033279;28;20083;-75
2022/11/21 04:44:46;;;;;;;5.20;1.73;;;11.90;96.60;;;;;;5031704;28;20032;-74
2022/11/21 04:47:12;;;;;;;6.65;2.08;;;11.90;96.80;;;;;;5033036;28;20501;-72
2022/11/21 04:49:37;;;;;;;5.95;2.20;;;11.90;96.50;;;;;;5032554;28;20426;-73
2022/11/21 04:52:03;;;;;;;6.32;1.70;;;12.00;96.30;;;;;;5031662;28;20459;-72
2022/11/21 04:54:29;;;;;;;7.97;1.90;;;12.00;96.10;;;;;;5033012;28;20026;-74
2022/11/21 04:56:54;;;;;;;7.78;1.95;;;11.90;96.20;;;;;;5033010;28;20029;-74
2022/11/21 04:59:20;;;;;;;5.35;1.75;;;11.90;96.30;;;;;;5032746;28;20021;-74
2022/11/21 05:01:45;;;;;;;7.53;1.35;;;11.90;96.30;;;;;;5032911;28;20379;-74
2022/11/21 05:04:11;;;;;;;7.80;1.75;;;11.90;96.30;;;;;;5032436;28;20029;-71
2022/11/21 05:06:37;;;;;;;7.28;2.22;;;11.80;96.30;;;;;;5032855;28;20053;-75
2022/11/21 05:09:02;;;;;;;7.38;1.73;;;11.80;96.20;;;;;;5032771;28;20037;-74
2022/11/21 05:14:12;;;;;;;8.27;2.15;;;11.80;96.10;;;;;;5032859;28;20044;-72
2022/11/21 05:16:38;;;;;;;8.68;1.90;;;11.70;96.10;;;;;;5032866;28;20108;-71
2022/11/21 05:19:03;;;;;;;7.47;1.88;;;11.70;96.00;;;;;;5032213;28;20030;-72
2022/11/21 05:21:29;;;;;;;6.50;2.08;;;11.70;95.90;;;;;;5032634;28;20044;-70
2022/11/21 05:23:54;;;;;;;12.40;2.10;;;11.70;95.80;;;;;;5032563;28;20022;-70
2022/11/21 05:26:20;;;;;;;4.30;1.63;;;11.70;95.80;;;;;;5032764;28;20104;-71
2022/11/21 05:28:47;;;;;;;7.60;2.55;;;11.60;95.90;;;;;;5031542;28;20021;-71
2022/11/21 05:31:13;;;;;;;7.95;1.35;;;11.60;95.70;;;;;;5032459;28;20053;-70
2022/11/21 05:33:38;;;;;;;6.07;1.55;;;11.60;95.80;;;;;;5032194;28;20045;-70
2022/11/21 05:36:04;;;;;;;7.53;2.25;;;11.60;95.70;;;;;;5032449;28;20025;-71
2022/11/21 05:38:29;;;;;;;7.80;1.95;;;11.60;95.70;;;;;;5032977;28;20375;-70
2022/11/21 05:40:55;;;;;;;7.53;1.95;;;11.50;95.80;;;;;;5036330;28;20379;-70
2022/11/21 05:46:05;;;;;;;6.50;1.52;;;11.50;95.70;;;;;;5036345;28;20136;-70
2022/11/21 05:48:30;;;;;;;6.78;2.13;;;11.50;95.50;;;;;;5036143;28;20530;-73
2022/11/21 05:50:56;;;;;;;8.40;1.77;;;11.40;95.60;;;;;;5044062;28;20430;-75
2022/11/21 05:53:21;;;;;;;5.68;1.60;;;11.40;95.60;;;;;;5049606;28;20486;-74
2022/11/21 05:55:47;;;;;;;12.20;2.33;;;11.90;95.50;;;;;;5051266;28;20029;-71
2022/11/21 05:58:12;;;;;;;6.53;1.80;;;12.20;94.40;;;;;;5054003;28;20063;-74
2022/11/21 06:00:38;;;;;;;8.25;1.67;;;12.60;93.00;;;;;;5052575;28;20045;-73
2022/11/21 06:05:49;;;;;;;5.03;1.63;;;12.70;92.00;;;;;;5052688;28;20393;-70
2022/11/21 06:08:15;;;;;;;5.95;1.80;;;12.10;92.90;;;;;;5043142;28;20025;-76
2022/11/21 06:10:40;;;;;;;7.30;2.20;;;11.60;93.60;;;;;;5035388;28;20072;-74
2022/11/21 06:13:20;;;;;;;6.28;1.80;;;11.40;94.10;;;;;;5033784;28;20086;-75
2022/11/21 06:15:51;;;;;;;7.13;2.22;;;11.20;94.30;;;;;;5035487;28;20037;-70
2022/11/21 06:18:17;;;;;;;5.32;2.17;;;11.10;94.40;;;;;;5035344;28;20021;-72
2022/11/21 06:20:44;;;;;;;5.80;1.98;;;11.10;94.50;;;;;;5037330;28;20509;-73
2022/11/21 06:23:10;;;;;;;8.38;1.80;;;11.00;94.70;;;;;;5048627;28;20461;-73
2022/11/21 06:25:35;;;;;;;4.28;1.70;;;11.10;94.70;;;;;;5055546;28;20526;-72
2022/11/21 06:28:01;;;;;;;6.90;2.45;;;11.10;94.60;;;;;;5048856;28;20052;-74
2022/11/21 06:30:26;;;;;;;5.53;2.05;;;12.00;93.60;;;;;;5042903;28;20029;-75
2022/11/21 06:32:52;;;;;;;10.57;2.15;;;11.60;93.60;;;;;;5044827;28;20731;-74
2022/11/21 06:35:17;;;;;;;4.88;1.90;;;11.30;94.00;;;;;;5047140;28;20098;-74
2022/11/21 06:37:43;;;;;;;6.68;1.83;;;11.10;94.30;;;;;;5054853;28;20490;-76
2022/11/21 06:40:09;;;;;;;5.68;1.95;;;11.00;94.40;;;;;;5060280;28;20121;-76
2022/11/21 06:42:35;;;;;;;8.13;1.75;;;11.10;94.40;;;;;;5054597;28;20024;-76
2022/11/21 06:45:00;;;;;;;6.22;2.08;;;11.30;94.20;;;;;;5051550;28;20391;-73
2022/11/21 06:47:26;;;;;;;7.95;2.50;;;11.00;94.20;;;;;;5060003;28;20073;-75
2022/11/21 06:49:51;;;;;;;4.43;1.60;;;10.90;94.40;;;;;;5048962;28;20482;-76
2022/11/21 06:52:17;;;;;;;7.68;2.08;;;10.90;94.40;;;;;;5041532;28;20019;-75
2022/11/21 06:54:42;;;;;;;7.22;3.10;;;10.80;94.40;;;;;;5052710;28;20040;-73
2022/11/21 06:57:08;;;;;;;12.27;5.05;;;10.80;94.40;;;;;;5059432;28;20498;-72
2022/11/21 06:59:33;;;;;;;9.52;5.75;;;10.80;94.60;;;;;;5064667;28;20500;-72
2022/11/21 07:01:59;;;;;;;12.75;8.38;;;10.80;94.50;;;;;;5054574;28;20039;-72
2022/11/21 07:04:25;;;;;;;16.00;8.57;;;10.70;94.70;;;;;;5051096;28;20082;-74
2022/11/21 07:06:50;;;;;;;11.55;7.85;;;10.60;94.80;;;;;;5041765;28;20074;-74
2022/11/21 07:09:16;;;;;;;10.20;5.65;;;10.70;94.70;;;;;;5070275;28;20138;-70
2022/11/21 07:11:42;;;;;;;10.38;6.70;;;10.60;94.70;;;;;;5059737;28;20025;-69
2022/11/21 07:14:08;;;;;;;13.25;7.20;;;10.50;94.80;;;;;;5057835;28;20029;-70
2022/11/21 07:16:33;;;;;;;13.57;7.32;;;10.90;94.90;;;;;;5056839;28;20033;-70
2022/11/21 07:18:59;;;;;;;11.60;6.60;;;11.00;94.10;;;;;;5045747;28;20035;-73
2022/11/21 07:21:25;;;;;;;8.85;5.22;;;11.10;94.00;;;;;;5053977;28;20040;-72
2022/11/21 07:23:50;;;;;;;8.18;4.45;;;10.70;94.40;;;;;;5055520;28;20036;-71
2022/11/21 07:26:16;;;;;;;8.43;4.03;;;10.60;94.80;;;;;;5072853;28;20024;-73
2022/11/21 07:28:42;;;;;;;6.78;4.28;;;10.50;95.00;;;;;;5072711;28;20020;-72
2022/11/21 07:31:08;;;;;;;9.20;3.80;;;10.50;94.90;;;;;;5074121;28;20021;-73
2022/11/21 07:33:34;;;;;;;9.57;3.20;;;10.40;94.90;;;;;;5072872;28;20482;-70
2022/11/21 07:35:59;;;;;;;8.75;3.38;;;10.40;95.00;;;;;;5061464;28;20040;-70
2022/11/21 07:38:25;;;;;;;7.35;3.20;;;10.40;94.90;;;;;;5052591;28;20025;-68
2022/11/21 07:40:51;;;;;;;7.88;2.88;;;10.50;94.90;;;;;;5053717;28;20120;-70
2022/11/21 07:43:17;;;;;;;5.93;2.60;;;10.50;94.70;;;;;;5053659;28;20048;-70
2022/11/21 07:45:42;;;;;;;7.57;2.80;;;10.50;94.80;;;;;;5053912;28;20047;-70
2022/11/21 07:48:09;;;;;;;11.75;2.78;;;10.60;94.70;;;;;;5053934;28;20496;-70
2022/11/21 07:50:35;;;;;;;7.70;3.22;;;10.50;94.80;;;;;;5052041;28;20120;-70
2022/11/21 07:53:03;;;;;;;7.20;2.53;;;10.50;94.90;;;;;;5053385;28;20097;-69
2022/11/21 07:55:29;;;;;;;10.45;2.85;;;10.50;94.90;;;;;;5054368;28;20025;-71
2022/11/21 07:58:02;;;;;;;8.05;2.88;;;10.50;94.90;;;;;;5053455;28;20037;-67
2022/11/21 08:00:30;;;;;;;10.70;3.40;;;10.40;95.10;;;;;;5053734;28;20033;-70
2022/11/21 08:02:55;;;;;;;10.20;3.85;;;10.60;95.00;;;;;;5053374;28;20112;-73
2022/11/21 08:05:21;;;;;;;8.10;2.90;;;10.70;94.70;;;;;;5053477;28;20061;-68
2022/11/21 08:07:47;;;;;;;9.65;3.45;;;10.80;94.60;;;;;;5056505;28;20509;-74
2022/11/21 08:10:13;;;;;;;8.20;3.10;;;11.00;94.50;;;;;;5073410;28;20029;-75
2022/11/21 08:12:38;;;;;;;9.60;3.15;;;11.00;94.20;;;;;;5073131;28;20024;-72
2022/11/21 08:15:05;;;;;;;12.75;3.58;;;11.50;93.60;;;;;;5073508;28;20093;-72
2022/11/21 08:17:31;;;;;;;62.25;9.65;;;11.80;93.10;;;;;;5058764;28;20390;-69
2022/11/21 08:19:59;;;;;;;13.95;3.72;;;12.10;92.60;;;;;;5053286;28;20482;-69
2022/11/21 08:22:24;;;;;;;12.40;4.25;;;12.40;92.20;;;;;;5053303;28;20114;-69
2022/11/21 08:24:50;;;;;;;9.00;3.20;;;12.60;92.10;;;;;;5053141;28;20490;-71
2022/11/21 08:27:19;;;;;;;10.40;4.22;;;12.50;92.00;;;;;;5052999;28;20501;-69
2022/11/21 08:29:45;;;;;;;13.85;4.85;;;12.50;92.40;;;;;;5053293;28;20024;-68
2022/11/21 08:32:10;;;;;;;13.02;4.60;;;12.40;92.20;;;;;;5053225;28;20413;-69
2022/11/21 08:34:36;;;;;;;8.52;4.00;;;12.30;92.30;;;;;;5053038;28;20504;-69
2022/11/21 08:37:01;;;;;;;10.88;3.45;;;12.50;92.40;;;;;;5053084;28;20474;-69
2022/11/21 08:39:29;;;;;;;13.75;3.88;;;12.30;92.50;;;;;;5052076;28;20111;-71
2022/11/21 08:42:04;;;;;;;10.18;3.65;;;12.30;92.40;;;;;;5052556;28;20033;-69
2022/11/21 08:44:34;;;;;;;8.75;3.40;;;12.40;92.50;;;;;;5051773;28;20032;-69
2022/11/21 08:47:00;;;;;;;12.85;3.30;;;12.50;92.40;;;;;;5053050;28;20025;-72
2022/11/21 08:49:27;;;;;;;10.25;3.60;;;12.70;92.50;;;;;;5051500;28;20445;-72
2022/11/21 08:51:52;;;;;;;10.63;3.47;;;12.70;92.30;;;;;;5053072;28;20019;-74
2022/11/21 08:54:20;;;;;;;9.85;4.32;;;12.80;92.40;;;;;;5051105;28;20020;-68
2022/11/21 08:56:45;;;;;;;8.65;2.95;;;13.00;94.20;;;;;;5052456;28;20021;-65
2022/11/21 08:59:11;;;;;;;9.98;2.90;;;13.10;94.30;;;;;;5052809;28;20032;-67
2022/11/21 09:01:37;;;;;;;11.30;3.17;;;13.30;94.80;;;;;;5052928;28;20024;-71
2022/11/21 09:04:03;;;;;;;13.02;3.25;;;13.40;95.00;;;;;;5050575;28;20037;-70
2022/11/21 09:06:29;;;;;;;9.27;2.70;;;13.40;94.60;;;;;;5052345;28;20017;-69
2022/11/21 09:08:55;;;;;;;7.70;2.83;;;13.40;94.50;;;;;;5052369;28;20070;-69
2022/11/21 09:11:20;;;;;;;15.60;3.45;;;13.40;94.80;;;;;;5052313;28;20100;-68
2022/11/21 09:18:01;;;;;;;9.82;2.95;;;13.50;94.90;;;;;;5053415;28;20029;-70
2022/11/21 09:19:15;;;;;;;10.38;2.85;;;12.80;94.10;;;;;;5056487;28;20443;-67
2022/11/21 09:21:41;;;;;;;6.70;2.70;;;13.10;94.60;;;;;;5056822;28;20099;-69
2022/11/21 09:24:07;;;;;;;13.65;2.92;;;13.10;94.10;;;;;;5052204;28;20465;-70
2022/11/21 09:26:32;;;;;;;11.05;3.38;;;13.00;94.10;;;;;;5052445;28;20151;-68
2022/11/21 09:28:58;;;;;;;10.63;3.20;;;12.90;94.40;;;;;;5053005;28;20044;-67
2022/11/21 09:31:23;;;;;;;10.75;2.97;;;13.10;94.00;;;;;;5052557;28;20033;-67
2022/11/21 09:33:49;;;;;;;10.00;2.88;;;13.50;94.40;;;;;;5040963;28;20080;-70
2022/11/21 09:36:14;;;;;;;11.98;2.80;;;13.40;93.80;;;;;;5049655;28;20075;-67
2022/11/21 09:38:40;;;;;;;24.38;3.28;;;13.40;94.00;;;;;;5050409;28;20024;-72
2022/11/21 09:44:27;;;;;;;13.95;3.33;;;13.20;94.70;;;;;;5051682;28;20031;-71
2022/11/21 09:47:22;;;;;;;12.38;3.15;;;13.50;94.70;;;;;;5051368;28;20494;-71
2022/11/21 09:49:58;;;;;;;16.40;3.17;;;13.30;94.80;;;;;;5041959;28;20041;-71
2022/11/21 09:52:47;;;;;;;11.60;2.67;;;13.50;95.00;;;;;;5051391;28;20765;-71
2022/11/21 09:55:20;;;;;;;15.00;3.83;;;13.70;94.90;;;;;;5041824;28;20046;-71
2022/11/21 09:57:48;;;;;;;12.48;3.33;;;13.80;95.10;;;;;;5052216;28;20025;-72
2022/11/21 10:00:24;;;;;;;10.98;2.83;;;13.70;94.90;;;;;;5051839;28;20025;-71
2022/11/21 10:02:51;;;;;;;9.20;2.95;;;13.70;94.90;;;;;;5053822;28;20036;-71
2022/11/21 10:05:24;;;;;;;12.88;3.53;;;13.80;95.10;;;;;;5051827;28;20025;-71
2022/11/21 10:07:56;;;;;;;7.95;2.65;;;13.70;94.80;;;;;;5039078;28;20074;-70
2022/11/21 10:10:43;;;;;;;12.43;3.08;;;13.90;95.10;;;;;;5049142;28;20039;-73
2022/11/21 10:13:33;;;;;;;10.50;2.92;;;13.90;95.00;;;;;;5052304;28;20099;-72
2022/11/21 10:16:19;;;;;;;12.05;3.00;;;14.00;94.90;;;;;;5050515;28;20044;-70
2022/11/21 10:19:06;;;;;;;13.00;3.42;;;14.10;95.00;;;;;;5049788;28;20041;-72
2022/11/21 10:21:45;;;;;;;8.93;3.15;;;14.00;95.10;;;;;;5050394;28;20045;-72
2022/11/21 10:24:37;;;;;;;10.25;2.97;;;13.80;95.40;;;;;;5049203;28;20103;-71
2022/11/21 10:27:34;;;;;;;10.52;3.33;;;13.90;95.10;;;;;;5049938;28;20025;-72
2022/11/21 10:30:13;;;;;;;9.00;2.78;;;13.70;94.90;;;;;;5051393;28;20432;-72
2022/11/21 10:32:46;;;;;;;17.25;3.05;;;13.90;94.70;;;;;;5049463;28;20025;-72
2022/11/21 10:35:18;;;;;;;8.90;2.97;;;13.80;95.10;;;;;;5051062;28;20474;-71
2022/11/21 10:38:09;;;;;;;10.80;3.47;;;13.50;94.90;;;;;;5038250;28;20017;-71
2022/11/21 10:40:37;;;;;;;11.55;3.00;;;13.50;95.10;;;;;;5051705;28;20041;-71
2022/11/21 10:45:53;;;;;;;14.27;3.15;;;13.70;94.70;;;;;;5038719;28;20044;-72
2022/11/21 10:48:19;;;;;;;10.82;3.72;;;13.70;95.00;;;;;;5053018;28;20021;-72
2022/11/21 10:50:59;;;;;;;11.50;3.50;;;13.70;94.90;;;;;;5046514;28;20478;-72
2022/11/21 10:56:21;;;;;;;10.27;3.50;;;13.90;94.50;;;;;;5051170;28;20051;-71
2022/11/21 10:58:47;;;;;;;10.18;3.33;;;14.10;94.40;;;;;;5050924;28;20116;-72
2022/11/21 11:01:31;;;;;;;11.20;3.75;;;14.10;94.50;;;;;;5044060;28;20228;-72
2022/11/21 11:04:17;;;;;;;12.77;3.00;;;14.00;94.20;;;;;;5051511;28;20047;-72
2022/11/21 11:06:47;;;;;;;8.25;3.10;;;14.00;94.70;;;;;;5049192;28;20474;-72
2022/11/21 11:09:30;;;;;;;8.48;3.50;;;14.00;94.30;;;;;;5051304;28;20024;-70
2022/11/21 11:12:18;;;;;;;8.63;3.40;;;14.10;94.40;;;;;;5051244;28;20047;-69
2022/11/21 11:14:50;;;;;;;11.05;3.42;;;14.40;94.50;;;;;;5052711;28;20473;-69
2022/11/21 11:17:24;;;;;;;12.77;2.92;;;14.30;94.40;;;;;;5049808;28;20070;-69
2022/11/21 11:20:26;;;;;;;11.85;3.30;;;14.40;94.90;;;;;;5035768;28;20498;-69
2022/11/21 11:22:52;;;;;;;17.42;4.78;;;14.60;95.30;;;;;;5048997;28;20043;-70
2022/11/21 11:25:17;;;;;;;13.68;4.80;;;14.60;94.30;;;;;;5050244;28;20124;-69
2022/11/21 11:27:43;;;;;;;16.83;3.97;;;14.70;93.90;;;;;;5049355;28;20100;-69
2022/11/21 11:30:15;;;;;;;12.65;4.20;;;14.80;94.70;;;;;;5051076;28;20466;-68
2022/11/21 11:32:40;;;;;;;11.90;3.83;;;14.90;95.00;;;;;;5049799;28;20107;-68
2022/11/21 11:35:12;;;;;;;11.77;3.60;;;15.00;94.90;;;;;;5050067;28;20117;-68
2022/11/21 11:37:41;;;;;;;8.60;3.22;;;15.00;95.00;;;;;;5048539;28;20385;-69
2022/11/21 11:40:34;;;;;;;11.43;3.63;;;15.10;94.80;;;;;;5046991;28;20429;-68
2022/11/21 11:49:12;;;;;;;12.57;3.45;;;15.20;93.60;;;;;;5050566;28;20132;-69
2022/11/21 11:51:43;;;;;;;12.45;4.22;;;15.20;94.00;;;;;;5045870;28;20025;-69
2022/11/21 11:54:17;;;;;;;13.85;3.90;;;14.80;92.80;;;;;;5049990;28;20040;-69
2022/11/21 11:56:44;;;;;;;14.18;3.60;;;14.70;93.30;;;;;;5050735;28;20478;-68
2022/11/21 11:59:17;;;;;;;9.18;3.63;;;14.90;93.00;;;;;;5048898;28;20137;-70
2022/11/21 12:02:19;;;;;;;11.95;3.45;;;14.90;93.00;;;;;;5049888;28;20533;-69
2022/11/21 12:05:02;;;;;;;8.27;3.10;;;14.90;93.10;;;;;;5044504;28;20409;-68
2022/11/21 12:07:34;;;;;;;11.77;4.22;;;14.70;93.00;;;;;;5049066;28;20025;-68
2022/11/21 12:10:05;;;;;;;;;;;14.90;93.10;;;;;;5049895;28;20013;-69
2022/11/21 12:12:44;;;;;;;12.23;3.50;;;15.00;92.90;;;;;;5051016;28;19909;-68
2022/11/21 12:15:49;;;;;;;9.18;3.80;;;15.00;92.90;;;;;;5040915;28;20055;-69
2022/11/21 12:18:15;;;;;;;11.13;3.97;;;14.90;93.00;;;;;;5048486;28;20478;-68
2022/11/21 12:21:17;;;;;;;13.30;3.33;;;15.00;92.90;;;;;;5049407;28;20041;-68
2022/11/21 12:23:51;;;;;;;8.80;3.45;;;14.80;93.10;;;;;;5049996;28;20032;-68
2022/11/21 12:26:38;;;;;;;7.72;3.53;;;14.80;93.10;;;;;;5050160;28;20146;-68
2022/11/21 12:29:16;;;;;;;9.30;3.90;;;14.90;93.20;;;;;;5043400;28;20040;-68
2022/11/21 12:32:03;;;;;;;10.20;3.63;;;14.90;93.10;;;;;;5048770;28;20159;-69
2022/11/21 12:34:47;;;;;;;14.32;4.63;;;14.80;93.20;;;;;;5046464;28;20049;-68
2022/11/21 12:37:42;;;;;;;10.05;4.15;;;14.80;93.40;;;;;;5048694;28;20478;-69
2022/11/21 12:40:39;;;;;;;7.80;3.80;;;14.80;93.60;;;;;;5048724;28;20037;-69
2022/11/21 12:43:42;;;;;;;10.02;4.28;;;14.90;93.40;;;;;;5049784;28;20029;-70
2022/11/21 12:46:22;;;;;;;8.80;3.75;;;15.00;93.50;;;;;;5047180;28;20021;-72
2022/11/21 12:54:29;;;;;;;11.00;4.60;;;14.90;93.20;;;;;;5049555;28;20039;-72
2022/11/21 12:55:33;;;;;;;12.27;4.80;;;15.00;93.20;;;;;;5048387;28;20126;-71
2022/11/21 12:58:05;;;;;;;11.68;4.57;;;14.70;93.10;;;;;;5050433;28;20112;-68
2022/11/21 13:00:54;;;;;;;11.40;4.85;;;14.50;93.60;;;;;;5047946;28;20068;-70
2022/11/21 13:03:36;;;;;;;11.98;4.53;;;14.30;93.80;;;;;;5047060;28;20025;-72
2022/11/21 13:06:04;;;;;;;9.35;4.28;;;14.20;94.10;;;;;;5047407;28;20025;-73
2022/11/21 13:08:37;;;;;;;9.45;4.93;;;14.50;94.30;;;;;;5048681;28;20028;-71
2022/11/21 13:14:19;;;;;;;9.52;3.70;;;14.90;93.70;;;;;;5050909;28;20091;-72
2022/11/21 13:17:08;;;;;;;10.73;4.55;;;15.00;93.70;;;;;;5049586;28;20044;-71
2022/11/21 13:20:00;;;;;;;9.90;4.95;;;15.00;93.40;;;;;;5027088;28;20036;-69
2022/11/21 13:22:35;;;;;;;;;;;15.10;93.30;;;;;;5049601;28;20486;-71
2022/11/21 13:25:23;;;;;;;7.22;3.50;;;15.30;93.00;;;;;;5049550;28;19916;-70
2022/11/21 13:27:49;;;;;;;7.57;3.80;;;15.20;93.10;;;;;;5048749;28;20029;-69
2022/11/21 13:30:19;;;;;;;12.32;4.13;;;15.30;93.10;;;;;;5032813;28;20029;-70